createdAt,value
2022-09-28T00:01:20.807Z,28.25
2022-09-28T00:03:49.891Z,26.08
2022-09-28T00:06:19.789Z,26.88
2022-09-28T00:08:47.096Z,26.73
2022-09-28T00:11:15.443Z,23.95
2022-09-28T00:13:43.843Z,23.33
2022-09-28T00:16:16.894Z,24.25
2022-09-28T00:18:44.101Z,22.17
2022-09-28T00:21:19.796Z,21.83
2022-09-28T00:24:04.985Z,21.00
2022-09-28T00:26:33.486Z,19.30
2022-09-28T00:29:02.630Z,19.85
2022-09-28T00:31:32.978Z,22.27
2022-09-28T00:34:01.290Z,22.40
2022-09-28T00:36:29.519Z,24.17
2022-09-28T00:38:57.719Z,21.08
2022-09-28T00:41:28.355Z,24.25
2022-09-28T00:44:27.029Z,21.10
2022-09-28T00:46:58.772Z,23.02
2022-09-28T00:49:48.468Z,23.50
2022-09-28T00:52:30.802Z,23.38
2022-09-28T00:55:02.315Z,21.70
2022-09-28T00:57:29.714Z,21.60
2022-09-28T00:59:56.780Z,20.63
2022-09-28T01:02:23.616Z,22.23
2022-09-28T01:04:52.179Z,22.38
2022-09-28T01:07:19.337Z,19.77
2022-09-28T01:09:46.517Z,21.95
2022-09-28T01:12:13.563Z,21.15
2022-09-28T01:14:41.249Z,21.25
2022-09-28T01:17:38.324Z,20.48
2022-09-28T01:20:05.919Z,21.85
2022-09-28T01:22:50.435Z,20.52
2022-09-28T01:25:23.620Z,20.60
2022-09-28T01:28:04.481Z,20.05
2022-09-28T01:30:39.330Z,20.42
2022-09-28T01:33:12.709Z,19.83
2022-09-28T01:35:52.587Z,21.02
2022-09-28T01:38:43.391Z,17.52
2022-09-28T01:41:11.443Z,16.60
2022-09-28T01:43:42.777Z,15.20
2022-09-28T01:46:17.928Z,15.73
2022-09-28T01:48:58.584Z,13.68
2022-09-28T01:51:35.961Z,13.75
2022-09-28T01:54:11.327Z,17.45
2022-09-28T01:56:53.020Z,20.35
2022-09-28T01:59:26.340Z,20.80
2022-09-28T02:02:02.035Z,21.35
2022-09-28T02:04:39.467Z,24.70
2022-09-28T02:07:27.737Z,24.38
2022-09-28T02:10:05.817Z,26.15
2022-09-28T02:12:40.304Z,26.35
2022-09-28T02:15:17.030Z,27.63
2022-09-28T02:17:44.466Z,28.02
2022-09-28T02:20:11.460Z,28.77
2022-09-28T02:22:49.749Z,27.63
2022-09-28T02:25:25.492Z,28.08
2022-09-28T02:28:04.807Z,29.42
2022-09-28T02:30:35.456Z,28.15
2022-09-28T02:33:19.986Z,28.38
2022-09-28T02:35:47.459Z,28.58
2022-09-28T02:38:15.105Z,28.58
2022-09-28T02:40:48.627Z,29.20
2022-09-28T02:43:33.123Z,29.70
2022-09-28T02:46:28.770Z,28.73
2022-09-28T02:49:25.806Z,30.15
2022-09-28T02:52:05.585Z,30.45
2022-09-28T02:54:56.610Z,31.98
2022-09-28T02:57:51.567Z,31.15
2022-09-28T03:00:21.192Z,32.65
2022-09-28T03:03:12.588Z,32.72
2022-09-28T03:05:50.339Z,32.73
2022-09-28T03:08:25.025Z,33.35
2022-09-28T03:11:00.863Z,32.60
2022-09-28T03:13:28.728Z,32.85
2022-09-28T03:16:09.506Z,32.28
2022-09-28T03:18:36.292Z,32.17
2022-09-28T03:21:05.175Z,32.60
2022-09-28T03:23:32.266Z,31.90
2022-09-28T03:25:59.542Z,31.98
2022-09-28T03:28:27.032Z,30.95
2022-09-28T03:30:54.428Z,31.40
2022-09-28T03:33:21.386Z,33.17
2022-09-28T03:35:51.881Z,31.92
2022-09-28T03:38:19.265Z,30.58
2022-09-28T03:40:57.170Z,32.20
2022-09-28T03:43:25.312Z,31.27
2022-09-28T03:45:53.999Z,31.50
2022-09-28T03:48:31.252Z,32.15
2022-09-28T03:51:01.698Z,33.90
2022-09-28T03:53:29.727Z,32.85
2022-09-28T03:56:01.933Z,32.38
2022-09-28T03:58:28.694Z,32.50
2022-09-28T04:00:55.593Z,32.83
2022-09-28T04:03:22.395Z,33.33
2022-09-28T04:05:53.470Z,33.17
2022-09-28T04:08:20.384Z,34.13
2022-09-28T04:10:47.272Z,32.13
2022-09-28T04:13:14.313Z,32.40
2022-09-28T04:15:41.030Z,32.75
2022-09-28T04:18:11.723Z,32.08
2022-09-28T04:20:41.074Z,32.40
2022-09-28T04:23:07.873Z,31.95
2022-09-28T04:25:34.609Z,32.53
2022-09-28T04:28:20.266Z,30.90
2022-09-28T04:30:47.989Z,30.83
2022-09-28T04:33:14.740Z,31.48
2022-09-28T04:35:41.681Z,30.77
2022-09-28T04:38:08.404Z,31.10
2022-09-28T04:40:35.243Z,30.25
2022-09-28T04:43:02.030Z,31.90
2022-09-28T04:45:28.933Z,32.53
2022-09-28T04:47:55.745Z,31.38
2022-09-28T04:50:22.682Z,33.90
2022-09-28T04:52:49.369Z,32.78
2022-09-28T04:55:16.956Z,31.92
2022-09-28T04:57:43.721Z,32.90
2022-09-28T05:00:11.073Z,29.83
2022-09-28T05:02:37.916Z,31.27
2022-09-28T05:05:05.079Z,30.88
2022-09-28T05:07:31.874Z,29.52
2022-09-28T05:09:58.621Z,30.23
2022-09-28T05:12:25.328Z,27.50
2022-09-28T05:14:52.079Z,26.60
2022-09-28T05:17:18.810Z,25.17
2022-09-28T05:19:45.546Z,26.48
2022-09-28T05:22:14.812Z,24.23
2022-09-28T05:24:41.832Z,23.92
2022-09-28T05:27:08.675Z,25.00
2022-09-28T05:29:35.441Z,24.40
2022-09-28T05:32:02.469Z,27.48
2022-09-28T05:34:29.382Z,26.77
2022-09-28T05:36:56.163Z,24.33
2022-09-28T05:39:22.943Z,21.65
2022-09-28T05:41:49.711Z,21.02
2022-09-28T05:44:16.581Z,21.00
2022-09-28T05:46:43.488Z,20.13
2022-09-28T05:49:10.304Z,19.67
2022-09-28T05:51:36.995Z,21.55
2022-09-28T05:54:06.114Z,20.73
2022-09-28T05:56:33.385Z,19.70
2022-09-28T05:59:00.401Z,20.98
2022-09-28T06:01:27.352Z,21.48
2022-09-28T06:03:54.218Z,21.23
2022-09-28T06:06:21.101Z,21.80
2022-09-28T06:08:48.592Z,21.48
2022-09-28T06:11:15.419Z,21.05
2022-09-28T06:13:42.242Z,19.98
2022-09-28T06:16:14.321Z,19.08
2022-09-28T06:18:41.537Z,19.00
2022-09-28T06:21:10.835Z,18.50
2022-09-28T06:23:39.973Z,18.27
2022-09-28T06:26:07.356Z,19.20
2022-09-28T06:28:34.117Z,18.00
2022-09-28T06:31:01.260Z,16.35
2022-09-28T06:33:28.161Z,17.25
2022-09-28T06:35:54.923Z,17.10
2022-09-28T06:38:21.901Z,18.90
2022-09-28T06:40:48.651Z,22.55
2022-09-28T06:43:15.717Z,23.73
2022-09-28T06:45:43.608Z,24.23
2022-09-28T06:48:11.378Z,24.95
2022-09-28T06:50:40.732Z,26.67
2022-09-28T06:53:10.460Z,27.73
2022-09-28T06:55:41.647Z,25.67
2022-09-28T06:58:13.419Z,27.05
2022-09-28T07:00:41.599Z,27.00
2022-09-28T07:03:12.381Z,26.30
2022-09-28T07:05:43.065Z,25.10
2022-09-28T07:08:09.838Z,27.65
2022-09-28T07:10:40.874Z,26.05
2022-09-28T07:13:10.712Z,25.60
2022-09-28T07:15:43.941Z,27.05
2022-09-28T07:18:11.887Z,27.58
2022-09-28T07:20:50.323Z,27.08
2022-09-28T07:23:20.119Z,27.98
2022-09-28T07:25:50.211Z,27.13
2022-09-28T07:28:17.442Z,27.38
2022-09-28T07:30:44.781Z,29.25
2022-09-28T07:33:16.731Z,27.33
2022-09-28T07:35:55.180Z,27.23
2022-09-28T07:38:22.301Z,26.42
2022-09-28T07:41:07.966Z,25.90
2022-09-28T07:43:35.390Z,25.38
2022-09-28T07:46:02.301Z,23.00
2022-09-28T07:48:37.811Z,22.50
2022-09-28T07:51:06.035Z,22.20
2022-09-28T07:53:33.255Z,23.95
2022-09-28T07:56:06.422Z,23.40
2022-09-28T07:58:38.481Z,22.27
2022-09-28T08:01:08.351Z,22.40
2022-09-28T08:03:35.485Z,23.35
2022-09-28T08:06:05.952Z,23.42
2022-09-28T08:08:34.366Z,37.60
2022-09-28T08:11:01.341Z,25.55
2022-09-28T08:13:28.681Z,23.30
2022-09-28T08:15:55.441Z,23.85
2022-09-28T08:18:23.417Z,24.10
2022-09-28T08:21:11.733Z,24.67
2022-09-28T08:23:38.608Z,23.33
2022-09-28T08:26:06.655Z,23.48
2022-09-28T08:28:34.886Z,24.08
2022-09-28T08:31:01.976Z,22.65
2022-09-28T08:33:29.353Z,22.10
2022-09-28T08:36:00.964Z,22.25
2022-09-28T08:38:29.572Z,21.25
2022-09-28T08:40:59.400Z,20.92
2022-09-28T08:43:49.850Z,20.33
2022-09-28T08:46:22.703Z,19.65
2022-09-28T08:52:20.630Z,16.92
2022-09-28T08:55:02.624Z,16.65
2022-09-28T08:58:07.223Z,16.65
2022-09-28T09:00:42.296Z,13.50
2022-09-28T09:03:15.145Z,13.18
2022-09-28T09:05:52.404Z,13.13
2022-09-28T09:08:39.544Z,12.73
2022-09-28T09:11:25.461Z,12.45
2022-09-28T09:13:58.750Z,11.90
2022-09-28T09:16:34.433Z,10.73
2022-09-28T09:19:21.292Z,10.75
2022-09-28T09:22:10.023Z,9.68
2022-09-28T09:25:01.753Z,9.70
2022-09-28T09:27:41.720Z,7.70
2022-09-28T09:30:18.352Z,7.68
2022-09-28T09:33:24.748Z,7.78
2022-09-28T09:36:04.496Z,7.05
2022-09-28T09:38:31.313Z,7.50
2022-09-28T09:41:23.214Z,6.68
2022-09-28T09:46:39.946Z,5.13
2022-09-28T09:49:12.813Z,4.70
2022-09-28T09:51:48.513Z,32.03
2022-09-28T09:54:28.604Z,5.00
2022-09-28T09:57:15.891Z,3.80
2022-09-28T09:59:44.603Z,3.80
2022-09-28T10:02:32.882Z,3.70
2022-09-28T10:05:11.950Z,3.28
2022-09-28T10:07:52.329Z,3.08
2022-09-28T10:10:38.939Z,3.50
2022-09-28T10:13:05.674Z,2.58
2022-09-28T10:15:35.341Z,3.20
2022-09-28T10:18:10.374Z,2.58
2022-09-28T10:20:43.578Z,3.08
2022-09-28T10:23:22.735Z,2.40
2022-09-28T10:25:52.253Z,2.38
2022-09-28T10:28:27.899Z,2.30
2022-09-28T10:30:54.996Z,2.50
2022-09-28T10:33:35.348Z,2.58
2022-09-28T10:36:06.829Z,2.33
2022-09-28T10:38:34.201Z,2.22
2022-09-28T10:41:10.295Z,2.80
2022-09-28T10:44:07.661Z,2.33
2022-09-28T10:46:36.643Z,1.55
2022-09-28T10:49:17.967Z,1.80
2022-09-28T10:51:53.307Z,2.03
2022-09-28T10:54:23.986Z,1.33
2022-09-28T10:56:52.905Z,1.25
2022-09-28T10:59:29.604Z,1.10
2022-09-28T11:02:04.473Z,1.95
2022-09-28T11:04:40.566Z,1.10
2022-09-28T11:07:30.469Z,1.33
2022-09-28T11:09:58.913Z,1.00
2022-09-28T11:12:37.920Z,1.00
2022-09-28T11:15:07.482Z,1.13
2022-09-28T11:17:40.393Z,1.00
2022-09-28T11:20:27.974Z,1.00
2022-09-28T11:23:15.670Z,1.10
2022-09-28T11:25:42.803Z,0.93
2022-09-28T11:28:20.495Z,1.05
2022-09-28T11:30:51.805Z,0.93
2022-09-28T11:33:35.196Z,0.80
2022-09-28T11:36:08.790Z,0.70
2022-09-28T11:39:02.774Z,1.10
2022-09-28T11:42:00.323Z,0.93
2022-09-28T11:44:39.568Z,1.30
2022-09-28T11:47:41.463Z,0.80
2022-09-28T11:50:31.357Z,0.75
2022-09-28T11:52:59.109Z,0.65
2022-09-28T11:55:43.859Z,0.80
2022-09-28T11:58:31.568Z,0.60
2022-09-28T12:01:27.163Z,0.68
2022-09-28T12:04:34.216Z,0.60
2022-09-28T12:07:19.183Z,0.93
2022-09-28T12:09:50.438Z,0.90
2022-09-28T12:12:38.270Z,0.85
2022-09-28T12:15:12.954Z,0.80
2022-09-28T12:17:54.350Z,0.85
2022-09-28T12:20:39.040Z,0.85
2022-09-28T12:23:14.160Z,0.90
2022-09-28T12:25:51.735Z,0.95
2022-09-28T12:28:39.831Z,1.02
2022-09-28T12:31:28.901Z,0.85
2022-09-28T12:33:55.819Z,2.83
2022-09-28T12:36:53.091Z,1.20
2022-09-28T12:39:56.574Z,1.02
2022-09-28T12:42:47.531Z,1.08
2022-09-28T12:45:59.777Z,0.90
2022-09-28T12:48:38.632Z,1.00
2022-09-28T12:51:30.314Z,1.02
2022-09-28T12:54:24.861Z,0.90
2022-09-28T12:57:00.437Z,0.90
2022-09-28T12:59:41.737Z,1.13
2022-09-28T13:02:34.543Z,1.10
2022-09-28T13:05:19.551Z,1.23
2022-09-28T13:07:55.634Z,0.88
2022-09-28T13:10:34.095Z,1.20
2022-09-28T13:13:22.107Z,1.00
2022-09-28T13:15:56.372Z,1.20
2022-09-28T13:18:33.683Z,0.90
2022-09-28T13:21:29.928Z,1.50
2022-09-28T13:24:14.511Z,1.02
2022-09-28T13:26:48.581Z,1.10
2022-09-28T13:29:19.054Z,1.23
2022-09-28T13:32:05.481Z,1.08
2022-09-28T13:34:35.315Z,1.63
2022-09-28T13:37:16.755Z,1.85
2022-09-28T13:39:52.900Z,1.85
2022-09-28T13:42:25.798Z,1.48
2022-09-28T13:45:09.491Z,1.23
2022-09-28T13:47:54.231Z,0.90
2022-09-28T13:50:48.680Z,1.10
2022-09-28T13:53:37.134Z,1.50
2022-09-28T13:56:21.798Z,2.10
2022-09-28T13:59:00.924Z,1.20
2022-09-28T14:01:35.513Z,1.17
2022-09-28T14:04:18.529Z,1.27
2022-09-28T14:06:57.548Z,1.15
2022-09-28T14:10:08.932Z,1.40
2022-09-28T14:12:35.632Z,1.10
2022-09-28T14:15:06.577Z,1.10
2022-09-28T14:17:44.814Z,1.58
2022-09-28T14:20:16.669Z,1.13
2022-09-28T14:23:11.093Z,1.42
2022-09-28T14:25:59.177Z,1.05
2022-09-28T14:28:31.203Z,6.75
2022-09-28T14:31:06.005Z,1.92
2022-09-28T14:33:33.664Z,2.03
2022-09-28T14:36:04.874Z,1.90
2022-09-28T14:38:54.824Z,4.40
2022-09-28T14:41:36.430Z,1.40
2022-09-28T14:44:08.812Z,1.48
2022-09-28T14:46:44.447Z,1.33
2022-09-28T14:49:17.507Z,1.45
2022-09-28T14:51:56.046Z,2.05
2022-09-28T14:54:39.187Z,8.45
2022-09-28T14:57:11.911Z,4.10
2022-09-28T14:59:43.834Z,1.92
2022-09-28T15:02:20.070Z,1.42
2022-09-28T15:04:53.931Z,1.30
2022-09-28T15:07:25.296Z,1.60
2022-09-28T15:09:54.831Z,3.75
2022-09-28T15:12:29.689Z,1.60
2022-09-28T15:15:02.324Z,4.03
2022-09-28T15:17:40.101Z,1.63
2022-09-28T15:20:10.955Z,1.52
2022-09-28T15:22:44.783Z,4.70
2022-09-28T15:25:21.165Z,2.70
2022-09-28T15:27:54.255Z,2.05
2022-09-28T15:30:28.527Z,2.00
2022-09-28T15:33:17.081Z,1.90
2022-09-28T15:35:57.302Z,1.70
2022-09-28T15:38:24.470Z,1.35
2022-09-28T15:40:51.637Z,1.20
2022-09-28T15:43:27.125Z,0.93
2022-09-28T15:46:04.206Z,1.38
2022-09-28T15:48:53.355Z,1.30
2022-09-28T15:51:22.054Z,1.38
2022-09-28T15:54:19.528Z,1.55
2022-09-28T15:56:52.889Z,1.00
2022-09-28T15:59:33.061Z,1.50
2022-09-28T16:02:16.610Z,1.60
2022-09-28T16:04:51.643Z,1.45
2022-09-28T16:07:29.970Z,1.33
2022-09-28T16:10:06.124Z,2.05
2022-09-28T16:12:40.909Z,1.65
2022-09-28T16:15:18.282Z,1.55
2022-09-28T16:18:02.908Z,1.83
2022-09-28T16:20:32.514Z,1.95
2022-09-28T16:23:21.950Z,1.70
2022-09-28T16:26:16.715Z,2.40
2022-09-28T16:28:50.843Z,1.60
2022-09-28T16:31:21.815Z,1.58
2022-09-28T16:34:09.566Z,1.40
2022-09-28T16:36:45.566Z,1.73
2022-09-28T16:39:17.392Z,1.40
2022-09-28T16:41:48.404Z,1.80
2022-09-28T16:44:28.618Z,1.45
2022-09-28T16:46:58.428Z,1.60
2022-09-28T16:49:26.277Z,1.73
2022-09-28T16:51:53.588Z,1.67
2022-09-28T16:54:41.625Z,2.08
2022-09-28T16:57:11.358Z,2.08
2022-09-28T16:59:41.071Z,1.70
2022-09-28T17:05:07.304Z,2.20
2022-09-28T17:07:34.599Z,2.17
2022-09-28T17:10:01.415Z,2.38
2022-09-28T17:12:40.236Z,2.92
2022-09-28T17:15:07.543Z,2.10
2022-09-28T17:17:35.242Z,2.03
2022-09-28T17:20:07.443Z,2.00
2022-09-28T17:22:34.227Z,2.80
2022-09-28T17:25:01.649Z,1.73
2022-09-28T17:27:29.197Z,2.13
2022-09-28T17:29:56.868Z,2.10
2022-09-28T17:32:23.825Z,2.38
2022-09-28T17:35:00.944Z,1.85
2022-09-28T17:37:42.168Z,1.95
2022-09-28T17:40:31.391Z,1.95
2022-09-28T17:42:59.780Z,1.80
2022-09-28T17:45:31.305Z,2.45
2022-09-28T17:48:00.454Z,2.72
2022-09-28T17:50:29.923Z,2.17
2022-09-28T17:52:59.791Z,3.08
2022-09-28T17:55:33.080Z,2.85
2022-09-28T17:58:03.160Z,2.42
2022-09-28T18:00:30.397Z,3.08
2022-09-28T18:02:59.009Z,2.38
2022-09-28T18:05:28.632Z,3.00
2022-09-28T18:07:58.764Z,3.45
2022-09-28T18:10:27.463Z,2.20
2022-09-28T18:12:55.154Z,3.15
2022-09-28T18:15:22.980Z,2.08
2022-09-28T18:17:51.846Z,2.60
2022-09-28T18:20:21.217Z,2.60
2022-09-28T18:22:48.547Z,3.03
2022-09-28T18:25:15.869Z,3.13
2022-09-28T18:27:45.056Z,2.28
2022-09-28T18:30:12.425Z,2.30
2022-09-28T18:32:39.240Z,3.28
2022-09-28T18:35:10.344Z,3.10
2022-09-28T18:37:41.970Z,2.28
2022-09-28T18:40:14.289Z,2.40
2022-09-28T18:42:42.258Z,3.05
2022-09-28T18:45:14.906Z,2.50
2022-09-28T18:47:44.123Z,2.65
2022-09-28T18:50:12.836Z,2.33
2022-09-28T18:52:40.516Z,2.55
2022-09-28T18:55:07.928Z,2.85
2022-09-28T18:57:35.591Z,2.40
2022-09-28T19:00:08.266Z,2.90
2022-09-28T19:02:35.724Z,2.30
2022-09-28T19:05:03.807Z,3.25
2022-09-28T19:07:33.347Z,2.97
2022-09-28T19:10:02.751Z,3.00
2022-09-28T19:12:32.396Z,2.67
2022-09-28T19:14:59.763Z,2.60
2022-09-28T19:17:29.870Z,2.92
2022-09-28T19:19:59.237Z,3.00
2022-09-28T19:22:26.541Z,2.92
2022-09-28T19:24:55.299Z,2.10
2022-09-28T19:27:24.115Z,2.78
2022-09-28T19:29:51.452Z,2.40
2022-09-28T19:32:19.105Z,2.80
2022-09-28T19:34:46.493Z,2.45
2022-09-28T19:37:16.309Z,2.15
2022-09-28T19:39:45.623Z,2.58
2022-09-28T19:42:14.971Z,2.55
2022-09-28T19:44:42.497Z,2.17
2022-09-28T19:47:11.673Z,1.90
2022-09-28T19:49:42.082Z,1.83
2022-09-28T19:52:16.578Z,1.98
2022-09-28T19:54:45.912Z,1.75
2022-09-28T19:57:15.855Z,1.90
2022-09-28T19:59:44.570Z,2.85
2022-09-28T20:02:14.138Z,2.33
2022-09-28T20:04:41.433Z,2.55
2022-09-28T20:07:08.492Z,1.90
2022-09-28T20:09:35.875Z,1.60
2022-09-28T20:12:02.672Z,1.70
2022-09-28T20:14:33.125Z,1.58
2022-09-28T20:17:05.503Z,1.17
2022-09-28T20:19:33.645Z,1.33
2022-09-28T20:22:02.839Z,1.20
2022-09-28T20:24:31.211Z,1.27
2022-09-28T20:27:00.950Z,1.45
2022-09-28T20:29:31.578Z,1.63
2022-09-28T20:32:00.967Z,1.20
2022-09-28T20:34:29.085Z,1.38
2022-09-28T20:36:56.539Z,1.58
2022-09-28T20:39:24.501Z,1.75
2022-09-28T20:41:54.064Z,1.30
2022-09-28T20:44:22.413Z,1.42
2022-09-28T20:46:53.765Z,1.35
2022-09-28T20:49:21.783Z,1.60
2022-09-28T20:51:50.076Z,1.42
2022-09-28T20:54:17.522Z,1.30
2022-09-28T20:56:44.384Z,1.73
2022-09-28T20:59:12.523Z,1.92
2022-09-28T21:01:43.315Z,1.50
2022-09-28T21:04:11.362Z,1.35
2022-09-28T21:06:41.010Z,1.10
2022-09-28T21:09:10.295Z,1.13
2022-09-28T21:11:38.836Z,1.88
2022-09-28T21:14:10.234Z,1.30
2022-09-28T21:16:39.478Z,1.10
2022-09-28T21:19:08.294Z,1.20
2022-09-28T21:21:37.251Z,1.10
2022-09-28T21:24:04.753Z,1.27
2022-09-28T21:26:34.536Z,1.25
2022-09-28T21:29:07.675Z,1.10
2022-09-28T21:31:47.802Z,1.17
2022-09-28T21:34:20.172Z,1.17
2022-09-28T21:36:48.885Z,1.40
2022-09-28T21:39:16.434Z,1.02
2022-09-28T21:41:43.435Z,1.33
2022-09-28T21:44:10.928Z,1.00
2022-09-28T21:46:40.785Z,1.35
2022-09-28T21:49:08.909Z,2.05
2022-09-28T21:51:38.004Z,1.88
2022-09-28T21:54:05.710Z,1.00
2022-09-28T21:56:34.463Z,1.00
2022-09-28T21:59:01.574Z,1.27
2022-09-28T22:01:29.456Z,1.55
2022-09-28T22:03:57.007Z,1.10
2022-09-28T22:06:28.005Z,2.05
2022-09-28T22:08:55.137Z,1.57
2022-09-28T22:11:24.221Z,1.65
2022-09-28T22:13:54.175Z,1.15
2022-09-28T22:16:23.014Z,1.10
2022-09-28T22:18:50.543Z,1.30
2022-09-28T22:21:37.637Z,1.15
2022-09-28T22:24:07.128Z,1.13
2022-09-28T22:26:36.643Z,1.23
2022-09-28T22:29:06.230Z,1.17
2022-09-28T22:31:35.826Z,1.25
2022-09-28T22:34:03.202Z,1.40
2022-09-28T22:36:30.405Z,1.23
2022-09-28T22:38:58.206Z,1.08
2022-09-28T22:41:25.245Z,1.13
2022-09-28T22:43:53.723Z,1.27
2022-09-28T22:46:26.360Z,1.33
2022-09-28T22:48:55.502Z,1.50
2022-09-28T22:51:23.756Z,1.30
2022-09-28T22:53:50.562Z,1.10
2022-09-28T22:56:19.177Z,1.48
2022-09-28T22:58:46.818Z,1.30
2022-09-28T23:01:19.705Z,1.45
2022-09-28T23:03:46.988Z,1.50
2022-09-28T23:06:18.491Z,1.38
2022-09-28T23:08:47.292Z,1.92
2022-09-28T23:11:15.233Z,1.45
2022-09-28T23:13:42.265Z,1.70
2022-09-28T23:16:12.265Z,1.10
2022-09-28T23:18:42.498Z,1.73
2022-09-28T23:21:15.246Z,1.55
2022-09-28T23:23:43.737Z,1.02
2022-09-28T23:26:16.246Z,1.25
2022-09-28T23:28:43.799Z,1.27
2022-09-28T23:31:13.689Z,1.85
2022-09-28T23:33:40.654Z,2.28
2022-09-28T23:36:07.966Z,1.90
2022-09-28T23:38:35.090Z,1.83
2022-09-28T23:41:01.991Z,1.70
2022-09-28T23:43:28.924Z,1.80
2022-09-28T23:45:55.662Z,1.13
2022-09-28T23:48:22.563Z,1.40
2022-09-28T23:50:49.371Z,1.15
2022-09-28T23:53:16.110Z,1.38
2022-09-28T23:55:43.478Z,1.50
2022-09-28T23:58:11.767Z,1.08
